Time;durP1;ratioP1;P1;durP2;ratioP2;P2;SDS_P1;SDS_P2;PMS_P1;PMS_P2;Temp;Humidity;BMP_temperature;BMP_pressure;BME280_temperature;BME280_humidity;BME280_pressure;Samples;Min_cycle;Max_cycle;Signal;HPM_P1;HPM_P2
2022/04/07 00:02:16;;;;;;;4.93;1.80;;;;;;;9.18;98.48;99168.94;5074355;28;20424;-65
2022/04/07 00:04:41;;;;;;;5.75;2.00;;;;;;;9.10;99.11;99163.97;5074694;28;20112;-65
2022/04/07 00:07:06;;;;;;;7.80;1.90;;;;;;;9.06;99.09;99154.53;5074795;28;20032;-64
2022/04/07 00:09:32;;;;;;;7.20;2.00;;;;;;;8.88;99.82;99132.53;5074332;28;20044;-64
2022/04/07 00:11:57;;;;;;;5.78;2.00;;;;;;;9.20;96.86;99151.44;5074719;28;20025;-64
2022/04/07 00:14:22;;;;;;;5.78;1.70;;;;;;;9.08;97.46;99139.69;5074946;28;20032;-65
2022/04/07 00:16:47;;;;;;;4.30;1.50;;;;;;;9.02;96.21;99121.59;5074593;28;20029;-65
2022/04/07 00:19:13;;;;;;;4.80;1.70;;;;;;;9.18;96.30;99138.44;5074818;28;20495;-65
2022/04/07 00:21:40;;;;;;;4.43;1.73;;;;;;;9.13;96.73;99135.16;5074526;28;20043;-64
2022/04/07 00:24:07;;;;;;;6.30;1.80;;;;;;;9.15;96.43;99137.72;5074691;28;20024;-64
2022/04/07 00:26:33;;;;;;;6.07;1.48;;;;;;;9.19;96.02;99139.28;5074728;28;20094;-64
2022/04/07 00:28:59;;;;;;;4.05;1.55;;;;;;;9.16;96.95;99128.97;5074439;28;20039;-64
2022/04/07 00:31:25;;;;;;;6.78;2.00;;;;;;;9.08;97.91;99113.59;5074015;28;20032;-65
2022/04/07 00:33:50;;;;;;;5.70;1.58;;;;;;;9.20;96.61;99109.69;5074781;28;20093;-65
2022/04/07 00:36:16;;;;;;;8.52;2.05;;;;;;;9.18;96.30;99114.94;5074400;28;20044;-65
2022/04/07 00:38:41;;;;;;;7.07;2.50;;;;;;;9.19;96.07;99090.56;5074639;28;20028;-64
2022/04/07 00:41:06;;;;;;;7.35;2.20;;;;;;;9.13;96.78;99092.56;5074299;28;20036;-64
2022/04/07 00:43:34;;;;;;;5.90;2.10;;;;;;;9.10;97.39;99090.03;5074460;28;20115;-66
2022/04/07 00:46:00;;;;;;;7.43;2.00;;;;;;;9.10;97.33;99075.25;5074162;28;20028;-65
2022/04/07 00:48:27;;;;;;;6.70;2.10;;;;;;;9.13;95.17;99067.31;5074407;28;20347;-65
2022/04/07 00:50:54;;;;;;;7.28;2.22;;;;;;;9.18;97.09;99085.41;5074370;28;20036;-65
2022/04/07 00:53:20;;;;;;;4.57;2.20;;;;;;;9.28;96.12;99077.19;5074117;28;20032;-64
2022/04/07 00:55:46;;;;;;;7.05;2.40;;;;;;;9.14;97.49;99070.78;5074283;28;20137;-63
2022/04/07 00:58:12;;;;;;;7.32;2.35;;;;;;;9.08;98.20;99070.06;5074190;28;20032;-64
2022/04/07 01:00:38;;;;;;;10.05;2.40;;;;;;;9.26;96.35;99049.44;5074248;28;20020;-63
2022/04/07 01:03:03;;;;;;;10.48;2.78;;;;;;;9.15;97.37;99041.16;5077657;28;20355;-63
2022/04/07 01:05:28;;;;;;;9.10;2.50;;;;;;;9.08;98.39;99059.63;5077768;28;20427;-63
2022/04/07 01:07:54;;;;;;;6.18;2.38;;;;;;;9.01;99.92;99059.91;5078035;28;20495;-64
2022/04/07 01:10:20;;;;;;;8.95;2.45;;;;;;;9.20;97.69;99058.34;5077904;28;20032;-65
2022/04/07 01:12:46;;;;;;;6.97;2.40;;;;;;;8.98;99.52;99045.22;5077536;28;20378;-64
2022/04/07 01:15:11;;;;;;;5.95;2.75;;;;;;;9.03;99.13;99040.69;5077954;28;20016;-64
2022/04/07 01:17:38;;;;;;;8.25;2.40;;;;;;;8.88;100.00;99042.97;5077586;28;20039;-63
2022/04/07 01:20:05;;;;;;;9.00;3.15;;;;;;;8.88;100.00;99042.97;5077848;28;20036;-65
2022/04/07 01:22:34;;;;;;;6.18;2.72;;;;;;;8.89;100.00;99036.88;5077373;28;20460;-65
2022/04/07 01:24:59;;;;;;;7.53;2.63;;;;;;;8.91;100.00;99027.22;5077708;28;20040;-64
2022/04/07 01:27:25;;;;;;;8.93;2.80;;;;;;;8.86;100.00;99023.94;5077584;28;20386;-63
2022/04/07 01:29:52;;;;;;;7.68;2.45;;;;;;;8.96;98.95;99012.28;5077046;28;20052;-65
2022/04/07 01:32:28;;;;;;;6.95;2.35;;;;;;;9.13;97.65;99015.13;5076980;28;20072;-64
2022/04/07 01:34:53;;;;;;;6.13;2.38;;;;;;;9.05;96.99;98996.28;5077595;28;20028;-65
2022/04/07 01:37:19;;;;;;;6.68;2.20;;;;;;;9.10;95.83;98970.88;5077424;28;20118;-64
2022/04/07 01:39:48;;;;;;;9.55;2.97;;;;;;;9.15;96.14;98979.38;5077393;28;20119;-64
2022/04/07 01:42:14;;;;;;;8.57;2.28;;;;;;;9.07;96.60;98991.84;5077072;28;20040;-65
2022/04/07 01:44:44;;;;;;;5.72;2.38;;;;;;;9.27;95.74;98972.84;5076972;28;20353;-63
2022/04/07 01:47:13;;;;;;;5.88;2.10;;;;;;;9.20;95.70;98972.22;5076563;28;20048;-65
2022/04/07 01:49:40;;;;;;;9.25;2.30;;;;;;;9.19;95.21;98952.25;5076906;28;20085;-65
2022/04/07 01:52:07;;;;;;;7.32;2.22;;;;;;;9.07;96.75;98955.31;5077114;28;20028;-64
2022/04/07 01:54:34;;;;;;;7.40;2.33;;;;;;;9.02;97.19;98952.03;5075882;28;20036;-65
2022/04/07 01:57:00;;;;;;;7.65;2.28;;;;;;;8.95;97.19;98932.31;5077211;28;20037;-64
2022/04/07 01:59:27;;;;;;;9.25;2.75;;;;;;;9.15;96.56;98955.06;5076545;28;20511;-64
2022/04/07 02:01:52;;;;;;;9.63;2.17;;;;;;;9.18;96.05;98966.19;5076712;28;20479;-65
2022/04/07 02:04:17;;;;;;;6.38;2.33;;;;;;;9.16;96.49;98944.56;5076866;28;20029;-65
2022/04/07 02:06:43;;;;;;;11.30;2.30;;;;;;;9.21;96.51;98949.56;5076746;28;20455;-63
2022/04/07 02:09:09;;;;;;;9.20;2.28;;;;;;;9.09;97.85;98948.28;5076567;28;20452;-64
2022/04/07 02:11:35;;;;;;;10.68;2.30;;;;;;;9.08;98.08;98951.81;5076566;28;20037;-64
2022/04/07 02:14:00;;;;;;;9.48;2.38;;;;;;;9.00;99.35;98948.66;5075666;28;20379;-64
2022/04/07 02:16:27;;;;;;;9.15;2.60;;;;;;;9.01;98.74;98929.44;5076435;28;20025;-64
2022/04/07 02:18:52;;;;;;;11.73;2.67;;;;;;;9.13;97.03;98938.59;5076558;28;20044;-65
2022/04/07 02:21:18;;;;;;;8.95;2.75;;;;;;;9.08;97.69;98939.63;5076547;28;20054;-65
2022/04/07 02:23:43;;;;;;;11.68;2.20;;;;;;;9.13;96.80;98926.41;5075430;28;20474;-64
2022/04/07 02:26:12;;;;;;;10.00;2.45;;;;;;;9.16;96.18;98910.63;5076127;28;20108;-65
2022/04/07 02:28:39;;;;;;;6.13;2.60;;;;;;;9.06;97.46;98917.94;5076141;28;20036;-63
2022/04/07 02:31:05;;;;;;;10.10;2.17;;;;;;;9.19;97.02;98920.06;5075867;28;20139;-64
2022/04/07 02:33:30;;;;;;;10.90;2.70;;;;;;;9.20;95.83;98909.59;5076215;28;20376;-63
2022/04/07 02:35:55;;;;;;;9.38;2.25;;;;;;;9.35;94.18;98916.81;5076367;28;20028;-64
2022/04/07 02:38:21;;;;;;;9.63;2.40;;;;;;;9.27;94.78;98907.59;5071761;28;20032;-63
2022/04/07 02:40:46;;;;;;;9.20;2.65;;;;;;;9.19;95.28;98904.41;5056063;28;20112;-64
2022/04/07 02:43:11;;;;;;;10.13;2.75;;;;;;;9.20;95.72;98906.97;5055909;28;20119;-65
2022/04/07 02:45:36;;;;;;;8.55;2.10;;;;;;;9.21;93.90;98900.84;5056009;28;20515;-65
2022/04/07 02:48:02;;;;;;;9.52;2.47;;;;;;;9.34;93.05;98885.56;5055945;28;20036;-64
2022/04/07 02:50:28;;;;;;;12.20;2.70;;;;;;;9.17;95.34;98885.38;5055920;28;20032;-66
2022/04/07 02:52:53;;;;;;;9.75;2.50;;;;;;;9.13;95.25;98881.19;5054705;28;20044;-65
2022/04/07 02:55:18;;;;;;;8.02;2.08;;;;;;;9.30;93.42;98869.19;5055764;28;20036;-64
2022/04/07 02:57:44;;;;;;;8.05;2.38;;;;;;;9.22;92.79;98849.50;5055644;28;20100;-65
2022/04/07 03:00:09;;;;;;;12.63;2.83;;;;;;;9.17;94.41;98857.53;5055761;28;20107;-65
2022/04/07 03:02:35;;;;;;;9.38;2.22;;;;;;;9.37;92.25;98854.09;5055678;28;20029;-64
2022/04/07 03:05:00;;;;;;;8.48;2.58;;;;;;;9.34;92.63;98862.09;5055762;28;20040;-64
2022/04/07 03:07:25;;;;;;;8.30;2.70;;;;;;;9.39;91.34;98834.88;5055504;28;20475;-64
2022/04/07 03:09:50;;;;;;;10.75;2.38;;;;;;;9.45;91.28;98825.09;5055942;28;20021;-64
2022/04/07 03:12:16;;;;;;;7.82;2.58;;;;;;;9.54;90.70;98829.91;5055009;28;20114;-64
2022/04/07 03:14:41;;;;;;;11.05;2.42;;;;;;;9.43;91.45;98819.94;5055593;28;20025;-64
2022/04/07 03:17:07;;;;;;;8.30;2.70;;;;;;;9.58;89.40;98815.81;5055334;28;20047;-64
2022/04/07 03:19:32;;;;;;;7.32;2.30;;;;;;;9.63;89.39;98806.06;5055331;28;20432;-65
2022/04/07 03:21:58;;;;;;;12.15;2.88;;;;;;;9.57;89.62;98807.16;5055564;28;20041;-64
2022/04/07 03:24:24;;;;;;;9.55;2.55;;;;;;;9.46;90.81;98791.09;5054856;28;20045;-65
2022/04/07 03:26:50;;;;;;;11.43;2.40;;;;;;;9.48;90.50;98789.28;5054670;28;20048;-65
2022/04/07 03:29:16;;;;;;;9.07;2.58;;;;;;;9.48;90.28;98791.03;5055103;28;20068;-65
2022/04/07 03:31:41;;;;;;;12.18;3.25;;;;;;;9.42;89.87;98779.06;5054850;28;20037;-65
2022/04/07 03:34:07;;;;;;;11.50;2.35;;;;;;;9.43;90.78;98799.91;5055181;28;20040;-65
2022/04/07 03:36:32;;;;;;;9.13;2.50;;;;;;;9.61;88.44;98793.06;5055151;28;20344;-65
2022/04/07 03:38:57;;;;;;;14.25;2.88;;;;;;;9.55;88.62;98790.69;5055088;28;20029;-64
2022/04/07 03:41:22;;;;;;;9.20;2.50;;;;;;;9.61;87.84;98773.94;5055446;28;20033;-64
2022/04/07 03:43:48;;;;;;;8.40;2.25;;;;;;;9.66;87.65;98775.44;5054749;28;20082;-63
2022/04/07 03:46:16;;;;;;;12.13;2.90;;;;;;;9.56;87.57;98748.00;5054919;28;20388;-64
2022/04/07 03:48:41;;;;;;;9.45;2.45;;;;;;;9.55;88.76;98761.13;5055081;28;20028;-65
2022/04/07 03:51:06;;;;;;;8.52;2.53;;;;;;;9.71;87.05;98760.41;5054853;28;20035;-64
2022/04/07 03:53:32;;;;;;;8.20;1.95;;;;;;;9.83;86.02;98766.88;5054701;28;20029;-64
2022/04/07 03:55:57;;;;;;;10.63;2.20;;;;;;;9.74;87.30;98756.81;5054536;28;20356;-64
2022/04/07 03:58:22;;;;;;;7.53;2.33;;;;;;;9.59;88.15;98737.44;5055055;28;20037;-65
2022/04/07 04:00:47;;;;;;;8.07;2.60;;;;;;;9.73;87.18;98760.34;5054760;28;20035;-57
2022/04/07 04:03:13;;;;;;;8.73;2.17;;;;;;;9.70;87.10;98731.72;5054822;28;20501;-64
2022/04/07 04:05:38;;;;;;;8.55;2.10;;;;;;;9.62;87.82;98712.94;5054780;28;20037;-63
2022/04/07 04:08:04;;;;;;;3.67;2.10;;;;;;;9.69;86.76;98719.63;5053490;28;20029;-64
2022/04/07 04:10:29;;;;;;;9.00;2.15;;;;;;;9.57;88.55;98702.69;5054518;28;20032;-63
2022/04/07 04:12:55;;;;;;;6.72;2.10;;;;;;;9.69;86.52;98686.50;5054363;28;20099;-62
2022/04/07 04:15:20;;;;;;;4.72;1.63;;;;;;;9.76;86.03;98674.00;5054632;28;20433;-63
2022/04/07 04:17:45;;;;;;;8.85;2.00;;;;;;;9.61;87.35;98672.09;5053512;28;20060;-63
2022/04/07 04:20:11;;;;;;;7.65;2.13;;;;;;;9.58;88.03;98667.00;5054448;28;20079;-64
2022/04/07 04:22:37;;;;;;;8.43;2.05;;;;;;;9.55;88.31;98643.63;5054560;28;20047;-64
2022/04/07 04:25:03;;;;;;;7.88;2.03;;;;;;;9.53;88.29;98616.72;5054579;28;20036;-64
2022/04/07 04:27:28;;;;;;;4.35;1.45;;;;;;;9.60;87.78;98626.00;5054451;28;20040;-62
2022/04/07 04:29:54;;;;;;;4.72;1.20;;;;;;;9.54;87.91;98634.09;5054384;28;20049;-62
2022/04/07 04:32:19;;;;;;;4.63;1.73;;;;;;;9.51;87.77;98626.44;5054186;28;20086;-62
2022/04/07 04:34:45;;;;;;;9.55;2.00;;;;;;;9.64;86.84;98633.63;5054660;28;20056;-63
2022/04/07 04:37:10;;;;;;;5.35;1.80;;;;;;;9.57;87.66;98620.91;5072658;28;20048;-61
2022/04/07 04:39:35;;;;;;;5.13;1.83;;;;;;;9.65;86.96;98610.97;5077857;28;20050;-62
2022/04/07 04:42:00;;;;;;;5.75;1.88;;;;;;;9.50;88.31;98590.78;5078323;28;20032;-63
2022/04/07 04:44:26;;;;;;;5.47;2.00;;;;;;;9.61;87.96;98598.97;5078132;28;20024;-62
2022/04/07 04:46:51;;;;;;;6.13;1.67;;;;;;;9.58;88.83;98609.56;5078192;28;20037;-62
2022/04/07 04:49:17;;;;;;;5.85;1.60;;;;;;;9.63;88.73;98597.16;5078261;28;20028;-63
2022/04/07 04:51:42;;;;;;;4.63;1.65;;;;;;;9.57;90.63;98613.06;5078538;28;20025;-63
2022/04/07 04:54:07;;;;;;;4.40;1.83;;;;;;;9.48;91.46;98564.75;5078002;28;20413;-62
2022/04/07 04:56:32;;;;;;;3.85;1.50;;;;;;;9.38;92.94;98556.47;5077826;28;20033;-62
2022/04/07 04:58:58;;;;;;;4.25;1.40;;;;;;;9.43;93.49;98570.16;5077927;28;20064;-63
2022/04/07 05:01:24;;;;;;;3.97;1.20;;;;;;;9.54;92.83;98561.00;5078106;28;20029;-63
2022/04/07 05:03:49;;;;;;;1.58;1.15;;;;;;;9.58;92.79;98552.97;5077753;28;20036;-63
2022/04/07 05:06:14;;;;;;;1.83;1.10;;;;;;;9.33;94.42;98537.59;5077739;28;20056;-62
2022/04/07 05:08:40;;;;;;;3.55;1.35;;;;;;;9.41;93.54;98522.41;5077665;28;20074;-63
2022/04/07 05:11:05;;;;;;;2.85;1.10;;;;;;;9.61;92.34;98523.25;5078112;28;20081;-62
2022/04/07 05:13:30;;;;;;;3.42;1.30;;;;;;;9.58;92.45;98526.84;5077914;28;20028;-63
2022/04/07 05:15:56;;;;;;;2.47;1.20;;;;;;;9.52;93.32;98526.31;5069983;28;20443;-58
2022/04/07 05:18:21;;;;;;;4.50;1.38;;;;;;;9.31;94.91;98513.31;5077898;28;20071;-60
2022/04/07 05:20:46;;;;;;;4.63;1.70;;;;;;;9.31;94.63;98515.91;5057953;28;20037;-62
2022/04/07 05:23:11;;;;;;;3.28;1.80;;;;;;;9.59;93.08;98517.25;5060015;28;20037;-62
2022/04/07 05:25:37;;;;;;;3.88;1.60;;;;;;;9.52;93.25;98500.19;5057320;28;20032;-62
2022/04/07 05:28:02;;;;;;;3.88;1.48;;;;;;;9.51;93.45;98488.06;5057276;28;20037;-61
2022/04/07 05:30:27;;;;;;;4.00;1.83;;;;;;;9.37;95.09;98475.63;5057354;28;20063;-61
2022/04/07 05:32:53;;;;;;;5.65;2.08;;;;;;;9.54;93.87;98472.22;5057069;28;20036;-62
2022/04/07 05:35:18;;;;;;;7.28;1.90;;;;;;;9.34;96.14;98476.63;5056820;28;20083;-62
2022/04/07 05:37:43;;;;;;;4.22;1.80;;;;;;;9.29;97.48;98481.22;5057192;28;20116;-63
2022/04/07 05:40:12;;;;;;;5.15;2.13;;;;;;;9.27;98.62;98480.44;5057513;28;20041;-62
2022/04/07 05:42:38;;;;;;;6.95;2.28;;;;;;;9.14;100.00;98450.63;5056987;28;20486;-66
2022/04/07 05:45:04;;;;;;;4.00;2.60;;;;;;;8.94;100.00;98454.13;5057350;28;20033;-68
2022/04/07 05:47:29;;;;;;;7.18;3.13;;;;;;;8.81;100.00;98457.34;5056600;28;20440;-69
2022/04/07 05:49:55;;;;;;;6.30;2.55;;;;;;;8.89;100.00;98450.00;5056633;28;20044;-68
2022/04/07 05:52:21;;;;;;;6.53;2.90;;;;;;;8.78;100.00;98428.78;5056707;28;20029;-68
2022/04/07 05:54:47;;;;;;;4.18;2.60;;;;;;;8.82;100.00;98415.56;5057216;28;20440;-69
2022/04/07 05:57:12;;;;;;;6.60;2.90;;;;;;;8.71;100.00;98408.19;5056616;28;20033;-69
2022/04/07 05:59:37;;;;;;;6.75;3.13;;;;;;;8.69;100.00;98407.41;5057101;28;20029;-72
2022/04/07 06:02:03;;;;;;;9.27;3.13;;;;;;;8.69;100.00;98407.41;5056629;28;20052;-70
2022/04/07 06:04:28;;;;;;;9.65;3.50;;;;;;;8.70;100.00;98390.88;5056357;28;20041;-72
2022/04/07 06:06:54;;;;;;;6.90;3.08;;;;;;;8.77;100.00;98390.59;5056552;28;20040;-55
2022/04/07 06:09:19;;;;;;;6.93;3.28;;;;;;;8.80;100.00;98387.84;5056098;28;20036;-67
2022/04/07 06:11:44;;;;;;;6.55;3.10;;;;;;;8.69;100.00;98372.69;5056466;28;20384;-68
2022/04/07 06:14:09;;;;;;;6.43;3.17;;;;;;;8.85;100.00;98380.66;5056600;28;20044;-68
2022/04/07 06:16:35;;;;;;;7.82;3.38;;;;;;;8.80;100.00;98372.22;5056377;28;20043;-58
2022/04/07 06:19:00;;;;;;;7.10;3.67;;;;;;;8.62;100.00;98374.75;5056606;28;20029;-64
2022/04/07 06:21:29;;;;;;;7.50;3.17;;;;;;;8.62;100.00;98356.50;5056388;28;20032;-63
2022/04/07 06:23:55;;;;;;;7.70;2.97;;;;;;;8.57;100.00;98355.00;5056153;28;20133;-63
2022/04/07 06:26:20;;;;;;;7.97;3.28;;;;;;;8.62;100.00;98338.25;5056469;28;20029;-63
2022/04/07 06:28:46;;;;;;;7.78;2.50;;;;;;;8.68;100.00;98343.16;5056455;28;20033;-62
2022/04/07 06:31:11;;;;;;;7.05;2.67;;;;;;;8.67;100.00;98325.81;5065549;28;20448;-62
2022/04/07 06:33:36;;;;;;;7.70;2.53;;;;;;;8.64;100.00;98333.81;5076094;28;20078;-62
2022/04/07 06:36:03;;;;;;;7.68;2.15;;;;;;;8.65;100.00;98330.28;5076218;28;20040;-62
2022/04/07 06:38:30;;;;;;;6.72;2.60;;;;;;;8.63;100.00;98326.91;5075994;28;20021;-63
2022/04/07 06:40:56;;;;;;;7.32;2.25;;;;;;;8.66;100.00;98305.88;5076320;28;20340;-62
2022/04/07 06:43:22;;;;;;;3.92;1.80;;;;;;;8.68;100.00;98298.00;5076004;28;20028;-63
2022/04/07 06:45:47;;;;;;;9.95;2.40;;;;;;;8.58;100.00;98292.38;5074114;28;20040;-65
2022/04/07 06:48:12;;;;;;;7.50;1.50;;;;;;;8.70;100.00;98273.53;5057965;28;20041;-65
2022/04/07 06:50:38;;;;;;;5.65;1.92;;;;;;;8.63;100.00;98274.75;5062979;28;20036;-65
2022/04/07 06:53:03;;;;;;;5.00;1.65;;;;;;;8.69;100.00;98258.81;5063650;28;20040;-64
2022/04/07 06:55:29;;;;;;;5.60;1.48;;;;;;;8.81;100.00;98270.44;5064607;28;20416;-65
2022/04/07 06:58:02;;;;;;;6.18;1.60;;;;;;;8.67;100.00;98239.78;5063412;28;20494;-65
2022/04/07 07:00:29;;;;;;;7.20;1.65;;;;;;;8.70;100.00;98241.41;5058899;28;20037;-66
2022/04/07 07:02:57;;;;;;;4.43;1.90;;;;;;;8.72;100.00;98227.38;5068151;28;20036;-65
2022/04/07 07:05:24;;;;;;;8.40;1.90;;;;;;;8.67;100.00;98226.75;5063631;28;20037;-65
2022/04/07 07:07:49;;;;;;;6.43;1.70;;;;;;;8.69;100.00;98205.81;5060623;28;20032;-65
2022/04/07 07:10:22;;;;;;;6.80;2.03;;;;;;;8.76;100.00;98191.59;5062198;28;20028;-65
2022/04/07 07:12:49;;;;;;;5.45;1.80;;;;;;;8.66;100.00;98185.97;5064478;28;20106;-65
2022/04/07 07:15:14;;;;;;;6.70;1.98;;;;;;;8.60;100.00;98191.50;5061388;28;20037;-66
2022/04/07 07:17:40;;;;;;;8.55;2.45;;;;;;;8.66;100.00;98177.28;5063519;28;20339;-65
2022/04/07 07:20:07;;;;;;;8.43;1.90;;;;;;;8.62;100.00;98173.16;5061241;28;20478;-67
2022/04/07 07:22:33;;;;;;;6.88;1.80;;;;;;;8.70;100.00;98171.03;5062423;28;20036;-65
2022/04/07 07:24:59;;;;;;;5.40;1.80;;;;;;;8.57;100.00;98155.13;5063992;28;20099;-64
2022/04/07 07:27:24;;;;;;;4.72;1.80;;;;;;;8.69;100.00;98146.72;5064849;28;20444;-63
2022/04/07 07:29:50;;;;;;;5.70;1.98;;;;;;;8.68;100.00;98126.78;5064059;28;20049;-62
2022/04/07 07:32:15;;;;;;;4.45;1.60;;;;;;;8.72;100.00;98122.25;5061884;28;20051;-63
2022/04/07 07:34:41;;;;;;;3.92;2.00;;;;;;;8.51;100.00;98079.84;5064026;28;20029;-63
2022/04/07 07:37:06;;;;;;;7.97;2.00;;;;;;;8.84;100.00;98105.16;5065544;28;20024;-64
2022/04/07 07:39:31;;;;;;;5.43;2.00;;;;;;;8.78;100.00;98113.28;5071863;28;20228;-62
2022/04/07 07:41:57;;;;;;;6.85;2.10;;;;;;;8.76;100.00;98105.53;5060153;28;20021;-65
2022/04/07 07:44:22;;;;;;;5.47;2.10;;;;;;;8.74;100.00;98089.13;5063453;28;20032;-63
2022/04/07 07:46:47;;;;;;;4.80;2.10;;;;;;;8.76;100.00;98125.56;5061918;28;20051;-63
2022/04/07 07:49:13;;;;;;;6.65;2.28;;;;;;;8.84;100.00;98272.03;5059581;28;20033;-64
2022/04/07 07:51:38;;;;;;;5.93;1.20;;;;;;;8.54;100.00;98308.22;5062219;28;20503;-63
2022/04/07 07:54:04;;;;;;;2.83;0.90;;;;;;;8.00;100.00;98310.56;5064415;28;20029;-64
2022/04/07 07:56:29;;;;;;;1.48;0.63;;;;;;;7.59;100.00;98314.13;5062752;28;20025;-63
2022/04/07 07:58:55;;;;;;;3.88;0.82;;;;;;;7.33;100.00;98295.22;5061231;28;20039;-64
2022/04/07 08:01:20;;;;;;;3.13;0.90;;;;;;;7.12;100.00;98303.88;5059476;28;20032;-65
2022/04/07 08:03:45;;;;;;;3.35;0.95;;;;;;;6.99;100.00;98279.28;5061941;28;20444;-64
2022/04/07 08:06:10;;;;;;;3.10;1.00;;;;;;;6.82;100.00;98273.91;5061088;28;20051;-64
2022/04/07 08:08:36;;;;;;;2.53;1.00;;;;;;;6.79;100.00;98306.06;5063977;28;20036;-64
2022/04/07 08:11:01;;;;;;;5.30;1.13;;;;;;;6.69;100.00;98277.91;5061591;28;20033;-63
2022/04/07 08:13:26;;;;;;;6.35;1.30;;;;;;;6.66;100.00;98267.63;5067530;28;20032;-63
2022/04/07 08:15:51;;;;;;;3.17;1.10;;;;;;;6.69;100.00;98273.56;5067205;28;20051;-64
2022/04/07 08:18:17;;;;;;;7.03;1.73;;;;;;;6.72;100.00;98263.03;5068111;28;20024;-63
2022/04/07 08:20:42;;;;;;;3.95;1.10;;;;;;;6.77;100.00;98268.88;5069639;28;20394;-64
2022/04/07 08:23:07;;;;;;;3.17;1.00;;;;;;;6.92;100.00;98260.50;5066249;28;20024;-64
2022/04/07 08:25:33;;;;;;;3.25;0.98;;;;;;;6.96;100.00;98276.81;5067751;28;20044;-63
2022/04/07 08:27:58;;;;;;;2.92;1.02;;;;;;;7.06;100.00;98270.34;5067304;28;20032;-64
2022/04/07 08:30:23;;;;;;;4.45;0.98;;;;;;;7.12;100.00;98257.06;5063373;28;20052;-64
2022/04/07 08:32:48;;;;;;;6.53;1.00;;;;;;;7.17;100.00;98257.72;5062818;28;20155;-65
2022/04/07 08:35:14;;;;;;;4.25;1.15;;;;;;;7.29;100.00;98252.03;5066044;28;20041;-64
2022/04/07 08:37:39;;;;;;;2.55;1.00;;;;;;;7.41;100.00;98266.28;5065197;28;20078;-63
2022/04/07 08:40:07;;;;;;;3.22;0.95;;;;;;;7.66;100.00;98266.06;5064905;28;20380;-64
2022/04/07 08:42:34;;;;;;;6.43;1.30;;;;;;;7.75;100.00;98260.50;5065968;28;20036;-64
2022/04/07 08:45:00;;;;;;;3.95;1.38;;;;;;;7.73;100.00;98256.25;5068798;28;20047;-65
2022/04/07 08:47:25;;;;;;;3.78;0.98;;;;;;;7.74;100.00;98243.19;5075540;28;20370;-65
2022/04/07 08:49:51;;;;;;;2.28;1.17;;;;;;;7.72;100.00;98231.97;5071413;28;20115;-63
2022/04/07 08:52:17;;;;;;;3.53;1.70;;;;;;;7.91;100.00;98232.88;5069411;28;20042;-65
2022/04/07 08:54:44;;;;;;;3.45;1.55;;;;;;;8.02;100.00;98245.41;5074264;28;20028;-64
2022/04/07 08:57:10;;;;;;;4.78;1.60;;;;;;;8.13;100.00;98244.94;5067620;28;20032;-64
2022/04/07 08:59:35;;;;;;;4.28;2.30;;;;;;;8.39;100.00;98249.81;5064482;28;20032;-64
2022/04/07 09:02:02;;;;;;;7.05;2.20;;;;;;;8.73;100.00;98256.91;5071372;28;20387;-63
2022/04/07 09:04:40;;;;;;;4.60;1.70;;;;;;;9.03;100.00;98239.78;5070319;28;20032;-60
2022/04/07 09:07:07;;;;;;;3.88;1.70;;;;;;;9.33;100.00;98242.66;5064688;28;20044;-63
2022/04/07 09:09:33;;;;;;;8.35;1.92;;;;;;;9.49;100.00;98231.44;5065650;28;20107;-61
2022/04/07 09:11:59;;;;;;;4.57;1.67;;;;;;;9.54;100.00;98240.72;5075869;28;20063;-62
2022/04/07 09:14:25;;;;;;;4.80;1.80;;;;;;;9.50;100.00;98222.69;5067809;28;20036;-62
2022/04/07 09:16:57;;;;;;;4.75;1.70;;;;;;;9.55;100.00;98238.94;5066278;28;20102;-62
2022/04/07 09:19:23;;;;;;;;;;;;;;;9.63;100.00;98247.25;5058431;28;20044;-63
2022/04/07 09:22:02;;;;;;;6.25;1.90;;;;;;;9.85;100.00;98247.00;5062185;28;19912;-66
2022/04/07 09:24:29;;;;;;;4.25;2.42;;;;;;;10.22;100.00;98245.91;5057132;28;20032;-64
2022/04/07 09:26:54;;;;;;;7.47;2.60;;;;;;;10.55;100.00;98241.50;5059775;28;20349;-67
2022/04/07 09:29:19;;;;;;;5.95;2.80;;;;;;;10.75;100.00;98248.22;5058299;28;20102;-67
2022/04/07 09:31:53;;;;;;;5.68;3.08;;;;;;;10.86;100.00;98250.25;5056976;28;20060;-67
2022/04/07 09:34:31;;;;;;;5.45;3.58;;;;;;;11.08;100.00;98243.69;5066828;28;20033;-66
2022/04/07 09:37:06;;;;;;;7.07;4.50;;;;;;;11.38;100.00;98263.84;5066999;28;20044;-67
2022/04/07 09:39:33;;;;;;;6.82;3.17;;;;;;;11.35;95.46;98264.84;5057133;28;20040;-67
2022/04/07 09:42:17;;;;;;;5.30;3.90;;;;;;;11.45;100.00;98266.00;5059643;28;20029;-65
2022/04/07 09:44:44;;;;;;;7.50;2.88;;;;;;;11.33;95.08;98265.88;5067458;28;20363;-65
2022/04/07 09:47:11;;;;;;;5.25;2.42;;;;;;;11.24;88.70;98258.56;5066247;28;20021;-65
2022/04/07 09:49:36;;;;;;;5.28;1.80;;;;;;;11.06;87.63;98250.81;5065971;28;20462;-65
2022/04/07 09:52:02;;;;;;;3.33;1.90;;;;;;;10.96;86.77;98254.88;5067603;28;20016;-65
2022/04/07 09:54:29;;;;;;;7.43;2.38;;;;;;;10.96;89.67;98239.16;5064557;28;20456;-66
2022/04/07 09:56:54;;;;;;;3.72;2.10;;;;;;;11.14;89.07;98266.91;5066610;28;20031;-66
2022/04/07 09:59:20;;;;;;;5.05;2.03;;;;;;;11.26;86.98;98259.28;5065209;28;20041;-66
2022/04/07 10:01:49;;;;;;;5.25;2.05;;;;;;;11.37;87.93;98254.28;5065340;28;20086;-65
2022/04/07 10:04:14;;;;;;;6.07;2.17;;;;;;;11.24;85.46;98245.47;5074042;28;20115;-61
2022/04/07 10:06:40;;;;;;;5.53;2.08;;;;;;;11.06;86.14;98266.53;5076907;28;20131;-68
2022/04/07 10:09:10;;;;;;;5.07;2.30;;;;;;;11.00;87.66;98255.53;5072314;28;20446;-67
2022/04/07 10:11:36;;;;;;;4.78;1.92;;;;;;;11.01;86.41;98267.69;5076579;28;20119;-67
2022/04/07 10:14:02;;;;;;;6.07;2.40;;;;;;;10.84;81.49;98280.88;5077028;28;20036;-64
2022/04/07 10:16:28;;;;;;;7.68;2.50;;;;;;;10.60;85.11;98259.53;5064458;28;20044;-66
2022/04/07 10:19:00;;;;;;;6.88;2.03;;;;;;;10.71;83.19;98263.25;5056379;28;20125;-64
2022/04/07 10:21:40;;;;;;;3.55;1.48;;;;;;;10.90;79.52;98273.56;5056706;28;20035;-66
2022/04/07 10:24:25;;;;;;;8.38;1.77;;;;;;;11.30;77.71;98284.38;5056819;28;20029;-67
2022/04/07 10:26:50;;;;;;;5.18;1.48;;;;;;;11.76;73.20;98257.22;5056621;28;20048;-66
2022/04/07 10:29:21;;;;;;;3.97;1.42;;;;;;;12.03;72.40;98277.47;5056422;28;20452;-65
2022/04/07 10:32:11;;;;;;;5.80;1.23;;;;;;;12.25;75.27;98271.75;5056167;28;20025;-65
2022/04/07 10:34:42;;;;;;;6.82;1.25;;;;;;;12.65;69.44;98291.09;5055283;28;20037;-68
2022/04/07 10:37:08;;;;;;;6.68;1.23;;;;;;;12.87;70.81;98281.78;5056082;28;20033;-67
2022/04/07 10:39:33;;;;;;;7.05;1.27;;;;;;;13.05;70.62;98282.41;5056173;28;20032;-66
2022/04/07 10:41:59;;;;;;;6.30;1.45;;;;;;;13.37;72.94;98296.09;5055982;28;20032;-65
2022/04/07 10:44:28;;;;;;;6.97;2.28;;;;;;;13.59;70.23;98295.53;5055968;28;20051;-65
2022/04/07 10:47:04;;;;;;;7.65;1.60;;;;;;;13.46;69.52;98313.06;5055887;28;20111;-64
2022/04/07 10:49:31;;;;;;;6.82;1.70;;;;;;;13.14;66.12;98315.09;5055784;28;20043;-65
2022/04/07 10:51:59;;;;;;;5.40;1.50;;;;;;;12.87;66.18;98321.16;5055894;28;20412;-66
2022/04/07 10:54:28;;;;;;;9.57;1.67;;;;;;;12.52;64.92;98331.22;5056046;28;20112;-65
2022/04/07 10:56:56;;;;;;;9.18;1.75;;;;;;;12.45;67.01;98316.81;5055771;28;20112;-67
2022/04/07 10:59:24;;;;;;;13.40;2.00;;;;;;;12.65;68.19;98326.06;5055881;28;20025;-65
2022/04/07 11:01:59;;;;;;;7.60;1.45;;;;;;;12.84;64.90;98338.88;5055574;28;20025;-65
2022/04/07 11:04:24;;;;;;;8.63;1.70;;;;;;;12.78;65.42;98327.00;5055675;28;20071;-65
2022/04/07 11:07:02;;;;;;;8.20;1.80;;;;;;;12.84;65.38;98337.09;5055636;28;20056;-66
2022/04/07 11:09:48;;;;;;;8.40;1.33;;;;;;;12.97;64.75;98339.81;5055859;28;20094;-64
2022/04/07 11:12:18;;;;;;;7.95;1.58;;;;;;;13.14;62.96;98349.25;5055274;28;20037;-65
2022/04/07 11:14:48;;;;;;;8.80;1.65;;;;;;;12.93;62.08;98338.31;5055414;28;20056;-65
2022/04/07 11:17:22;;;;;;;7.22;1.70;;;;;;;13.06;62.86;98352.34;5055418;28;20067;-65
2022/04/07 11:19:58;;;;;;;10.82;1.80;;;;;;;13.23;63.74;98370.53;5055730;28;20079;-64
2022/04/07 11:22:57;;;;;;;9.57;2.20;;;;;;;13.41;64.80;98376.38;5055236;28;20029;-66
2022/04/07 11:25:30;;;;;;;10.07;1.67;;;;;;;13.54;63.01;98369.41;5055351;28;20043;-66
2022/04/07 11:28:17;;;;;;;9.23;2.00;;;;;;;13.63;60.87;98382.91;5055395;28;20040;-67
2022/04/07 11:30:50;;;;;;;13.35;2.05;;;;;;;13.65;61.49;98407.28;5055387;28;20088;-65
2022/04/07 11:33:25;;;;;;;8.23;2.15;;;;;;;13.66;59.18;98377.44;5054586;28;20340;-64
2022/04/07 11:36:00;;;;;;;9.75;1.77;;;;;;;13.32;58.69;98373.53;5055261;28;20025;-66